createdAt,value
2023-03-06T00:00:59.786Z,28.10
2023-03-06T00:06:02.209Z,41.70
2023-03-06T00:11:03.760Z,28.90
2023-03-06T00:16:07.024Z,43.60
2023-03-06T00:21:09.054Z,33.20
2023-03-06T00:26:10.655Z,27.30
2023-03-06T00:31:12.198Z,25.40
2023-03-06T00:36:13.772Z,30.20
2023-03-06T00:41:15.320Z,42.80
2023-03-06T00:46:16.834Z,37.20
2023-03-06T00:51:19.783Z,33.60
2023-03-06T00:56:21.412Z,36.20
2023-03-06T01:01:23.440Z,25.00
2023-03-06T01:06:24.991Z,24.30
2023-03-06T01:11:26.505Z,25.10
2023-03-06T01:16:27.996Z,44.80
2023-03-06T01:21:29.497Z,30.30
2023-03-06T01:26:31.741Z,35.90
2023-03-06T01:31:33.604Z,24.50
2023-03-06T01:36:35.240Z,33.90
2023-03-06T01:41:36.958Z,28.80
2023-03-06T01:46:43.901Z,45.30
2023-03-06T01:51:50.211Z,30.40
2023-03-06T01:56:55.682Z,35.10
2023-03-06T02:02:01.795Z,27.00
2023-03-06T02:07:06.668Z,28.10
2023-03-06T02:12:11.388Z,30.60
2023-03-06T02:17:15.205Z,46.90
2023-03-06T02:22:16.882Z,34.70
2023-03-06T02:27:19.885Z,33.30
2023-03-06T02:32:21.443Z,31.60
2023-03-06T02:37:24.894Z,39.80
2023-03-06T02:42:29.018Z,30.90
2023-03-06T02:47:31.046Z,31.40
2023-03-06T02:52:32.677Z,50.80
2023-03-06T02:57:34.215Z,34.20
2023-03-06T03:02:35.872Z,29.10
2023-03-06T03:07:37.385Z,33.60
2023-03-06T03:12:39.549Z,36.70
2023-03-06T03:17:43.133Z,25.90
2023-03-06T03:22:53.072Z,28.10
2023-03-06T03:27:54.585Z,33.90
2023-03-06T03:32:56.138Z,57.70
2023-03-06T03:37:57.627Z,28.80
2023-03-06T03:42:59.123Z,30.70
2023-03-06T03:48:00.614Z,34.50
2023-03-06T03:53:02.138Z,244.50
2023-03-06T03:58:03.729Z,215.60
2023-03-06T04:03:05.224Z,330.70
2023-03-06T04:08:06.697Z,243.00
2023-03-06T04:13:09.967Z,321.80
2023-03-06T04:18:11.770Z,157.60
2023-03-06T04:23:14.123Z,86.40
2023-03-06T04:28:16.244Z,78.10
2023-03-06T04:33:18.193Z,42.30
2023-03-06T04:38:19.697Z,70.70
2023-03-06T04:43:21.366Z,44.70
2023-03-06T04:48:22.873Z,34.90
2023-03-06T04:53:24.517Z,100.30
2023-03-06T04:58:26.009Z,89.90
2023-03-06T05:03:27.607Z,101.70
2023-03-06T05:08:29.537Z,102.00
2023-03-06T05:13:31.062Z,62.50
2023-03-06T05:18:33.982Z,103.40
2023-03-06T05:23:38.547Z,76.40
2023-03-06T05:28:41.124Z,55.80
2023-03-06T05:33:42.616Z,51.70
2023-03-06T05:38:44.118Z,29.50
2023-03-06T05:43:45.593Z,35.70
2023-03-06T05:48:47.190Z,148.60
2023-03-06T05:53:48.744Z,69.80
2023-03-06T05:58:51.879Z,64.70
2023-03-06T06:03:53.417Z,52.10
2023-03-06T06:08:54.925Z,57.60
2023-03-06T06:13:56.474Z,67.80
2023-03-06T06:18:58.522Z,45.20
2023-03-06T06:24:00.078Z,47.60
2023-03-06T06:29:04.399Z,34.20
2023-03-06T06:34:06.789Z,77.90
2023-03-06T06:39:09.488Z,54.10
2023-03-06T06:44:15.513Z,42.80
2023-03-06T06:49:17.548Z,43.40
2023-03-06T06:54:20.144Z,39.60
2023-03-06T06:59:23.765Z,42.20
2023-03-06T07:04:25.354Z,68.30
2023-03-06T07:09:26.918Z,31.70
2023-03-06T07:14:28.432Z,46.30
2023-03-06T07:19:29.955Z,38.90
2023-03-06T07:24:31.650Z,30.50
2023-03-06T07:29:34.596Z,22.20
2023-03-06T07:34:36.524Z,26.20
2023-03-06T07:39:38.264Z,34.70
2023-03-06T07:44:40.363Z,58.20
2023-03-06T07:49:41.890Z,31.60
2023-03-06T07:54:43.466Z,37.40
2023-03-06T07:59:44.960Z,34.70
2023-03-06T08:04:53.427Z,33.20
2023-03-06T08:09:55.393Z,22.70
2023-03-06T08:14:57.575Z,37.50
2023-03-06T08:19:59.211Z,22.50
2023-03-06T08:25:00.881Z,30.80
2023-03-06T08:30:02.743Z,26.10
2023-03-06T08:35:05.013Z,24.90
2023-03-06T08:40:10.599Z,10.70
2023-03-06T08:45:12.073Z,18.50
2023-03-06T08:50:13.945Z,14.90
2023-03-06T08:55:15.436Z,23.80
2023-03-06T09:00:18.055Z,25.40
2023-03-06T09:05:19.698Z,15.80
2023-03-06T09:10:24.021Z,15.60
2023-03-06T09:15:26.036Z,33.00
2023-03-06T09:20:27.800Z,20.10
2023-03-06T09:25:29.404Z,22.50
2023-03-06T09:30:31.088Z,16.70
2023-03-06T09:35:32.784Z,30.70
2023-03-06T09:40:57.403Z,20.00
2023-03-06T09:45:59.545Z,20.30
2023-03-06T09:51:17.331Z,23.20
2023-03-06T09:56:24.446Z,25.70
2023-03-06T10:01:35.033Z,24.80
2023-03-06T10:06:36.506Z,18.20
2023-03-06T10:11:56.680Z,15.60
2023-03-06T10:16:58.608Z,21.50
2023-03-06T10:22:29.094Z,24.10
2023-03-06T10:27:42.512Z,26.40
2023-03-06T10:33:02.539Z,30.10
2023-03-06T10:38:30.455Z,29.30
2023-03-06T10:43:35.204Z,32.70
2023-03-06T10:48:42.035Z,25.90
2023-03-06T10:53:57.749Z,23.30
2023-03-06T10:59:14.894Z,18.40
2023-03-06T11:04:36.291Z,22.20
2023-03-06T11:09:38.774Z,18.50
2023-03-06T11:14:40.536Z,12.50
2023-03-06T11:19:42.256Z,15.50
2023-03-06T11:24:49.231Z,20.90
2023-03-06T11:29:54.792Z,64.10
2023-03-06T11:35:02.407Z,23.80
2023-03-06T11:40:32.624Z,14.80
2023-03-06T11:46:21.825Z,12.40
2023-03-06T11:51:31.357Z,12.20
2023-03-06T11:56:36.110Z,18.60
2023-03-06T12:02:10.063Z,14.40
2023-03-06T12:07:22.280Z,20.60
2023-03-06T12:12:45.765Z,21.50
2023-03-06T12:18:15.231Z,27.70
2023-03-06T12:23:16.673Z,21.20
2023-03-06T12:28:52.287Z,28.50
2023-03-06T12:34:14.084Z,39.30
2023-03-06T12:39:42.796Z,30.20
2023-03-06T12:45:13.648Z,38.00
2023-03-06T12:50:26.485Z,23.60
2023-03-06T12:55:29.333Z,25.60
2023-03-06T13:00:37.590Z,18.40
2023-03-06T13:06:13.252Z,24.00
2023-03-06T13:11:52.998Z,23.80
2023-03-06T13:16:54.688Z,18.20
2023-03-06T13:21:56.210Z,18.30
2023-03-06T13:26:59.111Z,27.10
2023-03-06T13:32:00.700Z,32.60
2023-03-06T13:37:17.478Z,46.80
2023-03-06T13:42:37.052Z,73.40
2023-03-06T13:48:06.544Z,36.10
2023-03-06T13:53:20.467Z,40.80
2023-03-06T13:58:40.922Z,33.40
2023-03-06T14:04:04.537Z,20.30
2023-03-06T14:09:22.565Z,33.50
2023-03-06T14:14:34.493Z,32.10
2023-03-06T14:19:38.685Z,44.50
2023-03-06T14:24:51.080Z,19.00
2023-03-06T14:30:05.535Z,26.50
2023-03-06T14:35:18.912Z,33.60
2023-03-06T14:40:27.631Z,61.70
2023-03-06T14:45:29.306Z,44.90
2023-03-06T14:50:34.539Z,62.80
2023-03-06T14:55:36.943Z,49.40
2023-03-06T15:00:44.847Z,44.20
2023-03-06T15:05:47.789Z,31.80
2023-03-06T15:11:04.826Z,45.00
2023-03-06T15:16:08.585Z,34.70
2023-03-06T15:21:22.364Z,37.60
2023-03-06T15:26:29.332Z,43.00
2023-03-06T15:31:33.208Z,30.00
2023-03-06T15:36:55.040Z,33.00
2023-03-06T15:42:01.731Z,27.00
2023-03-06T15:47:08.775Z,25.00
2023-03-06T15:52:10.849Z,50.80
2023-03-06T15:57:19.062Z,36.20
2023-03-06T16:02:22.935Z,19.80
2023-03-06T16:07:24.526Z,29.00
2023-03-06T16:12:26.895Z,19.90
2023-03-06T16:17:28.473Z,26.50
2023-03-06T16:22:30.047Z,23.80
2023-03-06T16:27:31.580Z,19.90
2023-03-06T16:32:33.505Z,39.00
2023-03-06T16:37:35.278Z,22.20
2023-03-06T16:42:36.782Z,28.70
2023-03-06T16:47:38.423Z,26.00
2023-03-06T16:52:40.070Z,26.30
2023-03-06T16:57:41.614Z,31.00
2023-03-06T17:02:43.569Z,21.60
2023-03-06T17:07:45.784Z,42.90
2023-03-06T17:12:47.328Z,27.70
2023-03-06T17:17:48.967Z,63.40
2023-03-06T17:22:50.613Z,36.50
2023-03-06T17:27:52.170Z,39.70
2023-03-06T17:32:53.685Z,33.60
2023-03-06T17:37:56.694Z,28.10
2023-03-06T17:42:58.403Z,21.60
2023-03-06T17:48:00.520Z,34.60
2023-03-06T17:53:03.084Z,30.60
2023-03-06T17:58:04.569Z,23.90
2023-03-06T18:03:06.176Z,30.10
2023-03-06T18:08:10.326Z,20.10
2023-03-06T18:13:11.873Z,27.70
2023-03-06T18:18:13.455Z,41.20
2023-03-06T18:23:15.319Z,29.90
2023-03-06T18:28:16.912Z,30.50
2023-03-06T18:33:18.376Z,27.40
2023-03-06T18:38:19.919Z,28.10
2023-03-06T18:43:21.420Z,30.40
2023-03-06T18:48:24.206Z,22.40
2023-03-06T18:53:25.681Z,21.70
2023-03-06T18:58:27.172Z,30.30
2023-03-06T19:03:28.690Z,17.50
2023-03-06T19:08:32.261Z,36.90
2023-03-06T19:13:34.601Z,29.90
2023-03-06T19:18:36.167Z,24.60
2023-03-06T19:23:38.067Z,30.00
2023-03-06T19:28:44.384Z,33.90
2023-03-06T19:33:47.882Z,28.20
2023-03-06T19:38:53.723Z,45.90
2023-03-06T19:43:58.353Z,29.80
2023-03-06T19:49:09.649Z,42.60
2023-03-06T19:54:12.660Z,38.90
2023-03-06T19:59:14.280Z,37.60
2023-03-06T20:04:16.926Z,45.00
2023-03-06T20:09:19.373Z,73.60
2023-03-06T20:14:21.090Z,59.10
2023-03-06T20:19:22.650Z,64.20
2023-03-06T20:24:26.013Z,64.80
2023-03-06T20:29:28.465Z,219.30
2023-03-06T20:34:30.508Z,199.40
2023-03-06T20:39:32.102Z,109.50
2023-03-06T20:44:33.946Z,152.50
2023-03-06T20:49:36.671Z,115.70
2023-03-06T20:54:38.258Z,95.80
2023-03-06T20:59:39.771Z,59.90
2023-03-06T21:04:41.472Z,68.70
2023-03-06T21:09:43.214Z,48.20
2023-03-06T21:14:44.744Z,65.30
2023-03-06T21:19:46.473Z,50.40
2023-03-06T21:24:48.000Z,30.30
2023-03-06T21:29:49.606Z,25.60
2023-03-06T21:34:51.247Z,19.00
2023-03-06T21:39:52.748Z,33.00
2023-03-06T21:44:54.261Z,24.20
2023-03-06T21:49:55.729Z,19.50
2023-03-06T21:54:57.221Z,16.30
2023-03-06T21:59:58.707Z,12.90
2023-03-06T22:05:00.291Z,11.00
2023-03-06T22:10:02.167Z,9.20
2023-03-06T22:15:04.703Z,18.40
2023-03-06T22:20:07.461Z,15.60
2023-03-06T22:25:09.765Z,12.90
2023-03-06T22:30:12.110Z,13.60
2023-03-06T22:35:13.656Z,11.70
2023-03-06T22:40:15.259Z,12.80
2023-03-06T22:45:17.144Z,20.30
2023-03-06T22:50:18.933Z,17.40
2023-03-06T22:55:20.414Z,11.00
2023-03-06T23:00:23.261Z,11.00
2023-03-06T23:05:24.804Z,15.50
2023-03-06T23:10:26.325Z,14.40
2023-03-06T23:15:27.850Z,11.90
2023-03-06T23:20:29.422Z,23.20
2023-03-06T23:25:30.951Z,18.60
2023-03-06T23:30:32.427Z,19.70
2023-03-06T23:35:35.406Z,15.90
2023-03-06T23:40:37.611Z,18.40
2023-03-06T23:45:39.119Z,9.30
2023-03-06T23:50:41.254Z,25.90
2023-03-06T23:55:44.342Z,21.20
